createdAt,value
2019-02-14T00:00:44.318Z,5.47
2019-02-14T00:03:12.798Z,5.90
2019-02-14T00:05:42.977Z,5.78
2019-02-14T00:08:10.697Z,5.90
2019-02-14T00:10:38.240Z,6.22
2019-02-14T00:13:06.782Z,6.90
2019-02-14T00:15:36.131Z,5.20
2019-02-14T00:18:04.234Z,6.10
2019-02-14T00:20:33.097Z,5.22
2019-02-14T00:23:00.462Z,4.90
2019-02-14T00:25:29.018Z,5.28
2019-02-14T00:27:57.645Z,5.53
2019-02-14T00:30:26.021Z,5.35
2019-02-14T00:32:55.500Z,5.58
2019-02-14T00:35:25.186Z,5.08
2019-02-14T00:37:55.119Z,5.67
2019-02-14T00:40:23.454Z,5.42
2019-02-14T00:42:51.730Z,4.95
2019-02-14T00:45:20.706Z,4.78
2019-02-14T00:47:51.599Z,4.92
2019-02-14T00:50:19.471Z,4.85
2019-02-14T00:52:46.823Z,5.45
2019-02-14T00:55:16.162Z,4.65
2019-02-14T00:57:43.849Z,4.80
2019-02-14T01:00:11.923Z,4.53
2019-02-14T01:02:40.858Z,4.45
2019-02-14T01:05:09.114Z,5.53
2019-02-14T01:07:37.528Z,5.00
2019-02-14T01:10:06.258Z,5.20
2019-02-14T01:12:34.424Z,5.05
2019-02-14T01:15:02.862Z,4.60
2019-02-14T01:17:31.492Z,4.37
2019-02-14T01:20:00.374Z,4.60
2019-02-14T01:22:29.220Z,5.00
2019-02-14T01:24:57.750Z,4.10
2019-02-14T01:27:26.434Z,4.30
2019-02-14T01:29:55.066Z,4.20
2019-02-14T01:32:24.191Z,4.15
2019-02-14T01:34:52.187Z,4.30
2019-02-14T01:37:20.749Z,4.33
2019-02-14T01:39:50.827Z,3.90
2019-02-14T01:42:18.917Z,4.25
2019-02-14T01:44:48.303Z,3.75
2019-02-14T01:47:15.830Z,3.92
2019-02-14T01:49:44.674Z,3.67
2019-02-14T01:52:12.894Z,3.85
2019-02-14T01:54:43.698Z,4.65
2019-02-14T01:57:12.131Z,3.55
2019-02-14T01:59:40.897Z,3.95
2019-02-14T02:02:09.826Z,3.67
2019-02-14T02:04:38.152Z,4.33
2019-02-14T02:07:06.766Z,4.35
2019-02-14T02:09:35.266Z,4.25
2019-02-14T02:12:03.865Z,4.60
2019-02-14T02:14:32.353Z,3.95
2019-02-14T02:17:00.806Z,4.20
2019-02-14T02:19:29.131Z,4.22
2019-02-14T02:21:57.432Z,4.40
2019-02-14T02:24:25.720Z,4.87
2019-02-14T02:26:54.418Z,4.80
2019-02-14T02:29:22.941Z,5.03
2019-02-14T02:31:51.467Z,4.55
2019-02-14T02:34:20.062Z,5.08
2019-02-14T02:36:49.106Z,5.00
2019-02-14T02:39:17.867Z,5.28
2019-02-14T02:41:45.673Z,5.45
2019-02-14T02:44:14.211Z,5.00
2019-02-14T02:46:42.445Z,4.90
2019-02-14T02:49:10.980Z,5.20
2019-02-14T02:51:39.860Z,4.58
2019-02-14T02:54:08.671Z,5.20
2019-02-14T02:56:35.869Z,4.80
2019-02-14T02:59:04.403Z,4.45
2019-02-14T03:01:33.171Z,4.53
2019-02-14T03:04:01.775Z,4.45
2019-02-14T03:06:30.292Z,4.72
2019-02-14T03:08:59.196Z,4.78
2019-02-14T03:11:26.586Z,4.65
2019-02-14T03:13:55.394Z,4.60
2019-02-14T03:16:23.859Z,3.95
2019-02-14T03:18:52.137Z,5.35
2019-02-14T03:21:21.284Z,4.80
2019-02-14T03:23:49.994Z,4.67
2019-02-14T03:26:17.791Z,4.50
2019-02-14T03:28:46.306Z,4.90
2019-02-14T03:31:15.365Z,4.75
2019-02-14T03:33:43.979Z,5.10
2019-02-14T03:36:18.511Z,4.30
2019-02-14T03:38:41.226Z,4.55
2019-02-14T03:41:09.415Z,4.80
2019-02-14T03:43:37.656Z,4.70
2019-02-14T03:46:05.949Z,4.72
2019-02-14T03:48:34.058Z,4.40
2019-02-14T03:51:02.363Z,4.35
2019-02-14T03:53:30.529Z,4.30
2019-02-14T03:55:59.086Z,4.53
2019-02-14T03:58:26.450Z,4.35
2019-02-14T04:00:54.726Z,4.05
2019-02-14T04:03:22.926Z,4.75
2019-02-14T04:05:51.234Z,5.05
2019-02-14T04:08:19.395Z,4.53
2019-02-14T04:10:47.698Z,4.53
2019-02-14T04:13:14.778Z,5.20
2019-02-14T04:15:42.938Z,4.95
2019-02-14T04:18:11.146Z,4.33
2019-02-14T04:20:39.323Z,4.90
2019-02-14T04:23:07.506Z,4.20
2019-02-14T04:25:35.585Z,4.53
2019-02-14T04:28:04.938Z,4.47
2019-02-14T04:30:33.142Z,5.08
2019-02-14T04:33:01.658Z,4.20
2019-02-14T04:35:28.822Z,4.50
2019-02-14T04:37:56.996Z,4.95
2019-02-14T04:40:33.246Z,4.55
2019-02-14T04:42:54.334Z,5.00
2019-02-14T04:45:21.551Z,4.60
2019-02-14T04:47:49.729Z,4.30
2019-02-14T04:50:17.247Z,4.53
2019-02-14T04:52:45.512Z,4.90
2019-02-14T04:55:13.739Z,4.62
2019-02-14T04:57:41.030Z,5.30
2019-02-14T05:00:09.763Z,5.22
2019-02-14T05:02:37.950Z,4.60
2019-02-14T05:05:06.405Z,4.05
2019-02-14T05:07:34.596Z,3.85
2019-02-14T05:10:03.718Z,4.30
2019-02-14T05:12:32.461Z,4.50
2019-02-14T05:15:01.212Z,3.80
2019-02-14T05:17:29.153Z,5.30
2019-02-14T05:19:58.201Z,4.25
2019-02-14T05:22:26.466Z,4.92
2019-02-14T05:24:56.597Z,4.70
2019-02-14T05:27:24.179Z,4.50
2019-02-14T05:29:51.238Z,4.53
2019-02-14T05:32:19.989Z,4.80
2019-02-14T05:34:48.652Z,4.55
2019-02-14T05:37:17.254Z,4.40
2019-02-14T05:39:46.150Z,4.28
2019-02-14T05:42:13.819Z,4.78
2019-02-14T05:44:42.551Z,5.22
2019-02-14T05:47:11.590Z,5.50
2019-02-14T05:49:40.779Z,5.12
2019-02-14T05:52:08.138Z,4.62
2019-02-14T05:54:36.625Z,4.40
2019-02-14T05:57:05.406Z,5.25
2019-02-14T05:59:33.380Z,5.70
2019-02-14T06:02:02.670Z,6.20
2019-02-14T06:04:30.070Z,6.00
2019-02-14T06:07:01.152Z,5.40
2019-02-14T06:09:29.446Z,5.55
2019-02-14T06:11:57.791Z,5.78
2019-02-14T06:14:26.084Z,5.60
2019-02-14T06:16:53.254Z,5.78
2019-02-14T06:19:21.340Z,6.03
2019-02-14T06:21:49.596Z,5.17
2019-02-14T06:24:18.021Z,5.00
2019-02-14T06:26:46.235Z,4.47
2019-02-14T06:29:14.662Z,4.80
2019-02-14T06:31:42.841Z,5.00
2019-02-14T06:34:11.011Z,5.70
2019-02-14T06:36:39.418Z,4.95
2019-02-14T06:39:06.574Z,5.65
2019-02-14T06:41:34.533Z,5.78
2019-02-14T06:44:02.750Z,4.95
2019-02-14T06:46:31.118Z,5.45
2019-02-14T06:49:01.618Z,5.53
2019-02-14T06:51:28.774Z,5.72
2019-02-14T06:53:55.937Z,5.80
2019-02-14T06:56:23.100Z,5.67
2019-02-14T06:58:51.211Z,5.47
2019-02-14T07:01:19.566Z,4.85
2019-02-14T07:03:47.743Z,5.20
2019-02-14T07:06:15.920Z,4.78
2019-02-14T07:08:44.068Z,5.97
2019-02-14T07:11:12.070Z,5.90
2019-02-14T07:13:39.170Z,5.20
2019-02-14T07:16:10.548Z,6.33
2019-02-14T07:18:39.038Z,6.55
2019-02-14T07:21:06.573Z,6.60
2019-02-14T07:23:35.191Z,6.50
2019-02-14T07:26:03.466Z,6.08
2019-02-14T07:28:31.983Z,6.15
2019-02-14T07:31:00.534Z,7.30
2019-02-14T07:33:29.108Z,6.47
2019-02-14T07:35:56.969Z,7.28
2019-02-14T07:38:26.990Z,6.47
2019-02-14T07:40:54.553Z,6.60
2019-02-14T07:43:22.310Z,6.33
2019-02-14T07:45:50.906Z,6.70
2019-02-14T07:48:20.936Z,6.37
2019-02-14T07:50:48.597Z,7.22
2019-02-14T07:53:16.575Z,6.30
2019-02-14T07:55:44.574Z,6.78
2019-02-14T07:58:12.626Z,6.45
2019-02-14T08:00:40.779Z,6.28
2019-02-14T08:03:08.954Z,5.42
2019-02-14T08:05:37.018Z,5.15
2019-02-14T08:08:05.103Z,5.85
2019-02-14T08:10:33.257Z,5.25
2019-02-14T08:13:01.369Z,5.25
2019-02-14T08:15:29.746Z,5.05
2019-02-14T08:17:57.808Z,5.28
2019-02-14T08:20:26.081Z,5.25
2019-02-14T08:22:54.350Z,5.05
2019-02-14T08:25:27.398Z,4.92
2019-02-14T08:27:55.889Z,4.87
2019-02-14T08:30:24.210Z,4.75
2019-02-14T08:32:52.282Z,4.90
2019-02-14T08:35:20.346Z,4.65
2019-02-14T08:37:48.542Z,4.58
2019-02-14T08:40:25.689Z,5.55
2019-02-14T08:42:53.759Z,4.75
2019-02-14T08:45:21.974Z,5.00
2019-02-14T08:47:50.022Z,5.00
2019-02-14T08:50:18.194Z,5.12
2019-02-14T08:52:46.663Z,4.35
2019-02-14T08:55:15.191Z,4.83
2019-02-14T08:57:43.350Z,4.28
2019-02-14T09:00:11.914Z,4.97
2019-02-14T09:02:40.170Z,4.47
2019-02-14T09:05:08.449Z,4.37
2019-02-14T09:07:38.105Z,4.55
2019-02-14T09:10:06.954Z,4.95
2019-02-14T09:12:35.660Z,5.15
2019-02-14T09:15:04.755Z,4.62
2019-02-14T09:17:33.145Z,3.75
2019-02-14T09:20:01.329Z,4.90
2019-02-14T09:22:29.398Z,4.40
2019-02-14T09:25:04.082Z,4.47
2019-02-14T09:27:31.162Z,4.00
2019-02-14T09:29:58.127Z,4.85
2019-02-14T09:32:26.546Z,4.30
2019-02-14T09:34:54.517Z,4.47
2019-02-14T09:37:26.294Z,4.05
2019-02-14T09:39:54.632Z,3.70
2019-02-14T09:42:23.224Z,3.90
2019-02-14T09:44:51.496Z,3.75
2019-02-14T09:47:19.562Z,3.40
2019-02-14T09:49:49.470Z,3.30
2019-02-14T09:52:17.779Z,3.70
2019-02-14T09:54:46.810Z,3.00
2019-02-14T09:57:15.101Z,3.60
2019-02-14T09:59:43.431Z,2.85
2019-02-14T10:02:13.835Z,3.50
2019-02-14T10:04:42.115Z,3.45
2019-02-14T10:07:10.273Z,4.53
2019-02-14T10:09:38.451Z,12.00
2019-02-14T10:12:06.507Z,14.33
2019-02-14T10:14:37.962Z,5.60
2019-02-14T10:17:06.141Z,3.60
2019-02-14T10:19:34.524Z,4.47
2019-02-14T10:22:02.696Z,3.65
2019-02-14T10:24:30.873Z,3.25
2019-02-14T10:27:02.981Z,2.70
2019-02-14T10:29:30.619Z,3.00
2019-02-14T10:31:59.306Z,2.72
2019-02-14T10:34:26.678Z,2.80
2019-02-14T10:36:55.125Z,2.80
2019-02-14T10:39:26.254Z,2.90
2019-02-14T10:41:54.473Z,2.50
2019-02-14T10:44:23.417Z,2.50
2019-02-14T10:46:52.168Z,2.00
2019-02-14T10:49:21.369Z,2.08
2019-02-14T10:51:54.585Z,2.00
2019-02-14T10:54:21.903Z,2.17
2019-02-14T10:56:50.593Z,2.22
2019-02-14T10:59:19.282Z,1.92
2019-02-14T11:01:48.092Z,2.37
2019-02-14T11:04:19.011Z,2.17
2019-02-14T11:06:46.779Z,1.80
2019-02-14T11:09:14.953Z,2.33
2019-02-14T11:11:43.660Z,1.90
2019-02-14T11:14:12.214Z,1.77
2019-02-14T11:16:46.546Z,1.70
2019-02-14T11:19:13.894Z,2.08
2019-02-14T11:21:42.502Z,1.72
2019-02-14T11:24:10.239Z,2.05
2019-02-14T11:26:38.457Z,1.72
2019-02-14T11:29:10.786Z,1.60
2019-02-14T11:31:39.791Z,1.82
2019-02-14T11:34:08.714Z,1.85
2019-02-14T11:36:36.433Z,1.90
2019-02-14T11:39:11.904Z,1.80
2019-02-14T11:41:43.441Z,1.70
2019-02-14T11:44:12.037Z,1.82
2019-02-14T11:46:39.687Z,1.45
2019-02-14T11:49:07.575Z,2.02
2019-02-14T11:51:39.357Z,1.72
2019-02-14T11:54:06.871Z,1.80
2019-02-14T11:56:34.755Z,1.67
2019-02-14T11:59:02.099Z,1.80
2019-02-14T12:01:29.470Z,2.02
2019-02-14T12:04:03.736Z,1.87
2019-02-14T12:06:31.114Z,1.83
2019-02-14T12:09:00.451Z,2.40
2019-02-14T12:11:29.218Z,1.90
2019-02-14T12:13:57.780Z,1.70
2019-02-14T12:16:29.044Z,1.90
2019-02-14T12:18:57.735Z,1.70
2019-02-14T12:21:26.149Z,2.07
2019-02-14T12:23:53.572Z,1.97
2019-02-14T12:26:21.731Z,1.93
2019-02-14T12:28:53.605Z,1.57
2019-02-14T12:31:22.054Z,1.80
2019-02-14T12:33:50.655Z,1.73
2019-02-14T12:36:19.338Z,1.87
2019-02-14T12:38:47.428Z,1.97
2019-02-14T12:41:20.566Z,2.30
2019-02-14T12:43:48.406Z,2.20
2019-02-14T12:46:16.726Z,2.03
2019-02-14T12:48:45.831Z,2.20
2019-02-14T12:51:13.657Z,1.80
2019-02-14T12:53:46.626Z,1.60
2019-02-14T12:56:14.334Z,2.00
2019-02-14T12:58:42.125Z,2.30
2019-02-14T13:01:09.491Z,1.87
2019-02-14T13:03:37.285Z,2.20
2019-02-14T13:06:10.366Z,1.90
2019-02-14T13:08:37.875Z,2.43
2019-02-14T13:11:05.027Z,2.37
2019-02-14T13:13:32.326Z,2.30
2019-02-14T13:16:00.530Z,2.20
2019-02-14T13:18:28.706Z,2.23
2019-02-14T13:21:01.394Z,2.10
2019-02-14T13:23:29.563Z,2.17
2019-02-14T13:25:58.082Z,2.40
2019-02-14T13:28:25.659Z,2.23
2019-02-14T13:30:53.847Z,1.90
2019-02-14T13:33:21.837Z,2.20
2019-02-14T13:35:51.248Z,2.60
2019-02-14T13:38:20.787Z,2.00
2019-02-14T13:40:49.087Z,2.00
2019-02-14T13:43:17.390Z,2.07
2019-02-14T13:45:45.598Z,1.90
2019-02-14T13:48:14.402Z,2.23
2019-02-14T13:50:42.934Z,1.90
2019-02-14T13:53:11.126Z,2.20
2019-02-14T13:55:39.968Z,2.37
2019-02-14T13:58:06.930Z,1.97
2019-02-14T14:00:35.097Z,1.87
2019-02-14T14:03:09.388Z,2.10
2019-02-14T14:05:36.854Z,2.10
2019-02-14T14:08:04.334Z,2.77
2019-02-14T14:10:31.704Z,2.40
2019-02-14T14:12:59.301Z,1.90
2019-02-14T14:15:28.300Z,1.97
2019-02-14T14:18:00.811Z,1.73
2019-02-14T14:20:29.044Z,1.30
2019-02-14T14:22:57.608Z,1.50
2019-02-14T14:25:24.823Z,1.60
2019-02-14T14:27:53.979Z,1.70
2019-02-14T14:30:25.834Z,1.30
2019-02-14T14:32:52.898Z,2.20
2019-02-14T14:35:19.954Z,1.60
2019-02-14T14:37:47.307Z,1.63
2019-02-14T14:40:14.515Z,1.73
2019-02-14T14:43:05.352Z,2.13
2019-02-14T14:46:09.717Z,1.60
2019-02-14T14:48:41.604Z,1.50
2019-02-14T14:51:09.972Z,1.67
2019-02-14T14:53:37.076Z,1.60
2019-02-14T14:56:04.101Z,1.33
2019-02-14T14:58:31.154Z,1.97
2019-02-14T15:00:58.717Z,1.90
2019-02-14T15:03:25.909Z,1.63
2019-02-14T15:05:56.921Z,1.87
2019-02-14T15:08:25.280Z,2.00
2019-02-14T15:10:53.607Z,1.70
2019-02-14T15:13:25.301Z,1.37
2019-02-14T15:16:05.536Z,1.97
2019-02-14T15:18:33.859Z,1.77
2019-02-14T15:21:01.539Z,1.60
2019-02-14T15:23:30.158Z,1.90
2019-02-14T15:25:58.291Z,1.90
2019-02-14T15:28:29.752Z,2.00
2019-02-14T15:30:57.951Z,1.90
2019-02-14T15:33:26.250Z,1.70
2019-02-14T15:35:54.625Z,2.40
2019-02-14T15:38:23.491Z,2.00
2019-02-14T15:41:02.236Z,2.20
2019-02-14T15:43:30.074Z,2.30
2019-02-14T15:45:59.906Z,2.70
2019-02-14T15:48:28.688Z,2.47
2019-02-14T15:50:57.541Z,2.10
2019-02-14T15:53:25.790Z,2.40
2019-02-14T15:55:53.962Z,2.70
2019-02-14T15:58:21.338Z,2.87
2019-02-14T16:00:51.687Z,2.30
2019-02-14T16:03:21.098Z,2.40
2019-02-14T16:05:49.452Z,2.20
2019-02-14T16:08:19.451Z,2.10
2019-02-14T16:10:46.740Z,2.23
2019-02-14T16:13:19.362Z,2.10
2019-02-14T16:15:46.340Z,2.40
2019-02-14T16:18:14.630Z,2.40
2019-02-14T16:20:44.304Z,2.67
2019-02-14T16:23:12.522Z,2.30
2019-02-14T16:25:42.942Z,2.30
2019-02-14T16:28:11.672Z,2.37
2019-02-14T16:30:41.230Z,2.40
2019-02-14T16:33:09.634Z,2.62
2019-02-14T16:35:36.851Z,2.67
2019-02-14T16:38:05.707Z,2.90
2019-02-14T16:40:38.920Z,2.70
2019-02-14T16:43:06.212Z,3.10
2019-02-14T16:45:33.427Z,3.12
2019-02-14T16:48:01.559Z,3.70
2019-02-14T16:50:28.648Z,3.30
2019-02-14T16:52:55.694Z,3.42
2019-02-14T16:55:24.216Z,3.00
2019-02-14T16:57:51.254Z,3.22
2019-02-14T17:00:19.421Z,4.10
2019-02-14T17:02:48.702Z,3.95
2019-02-14T17:05:16.875Z,4.15
2019-02-14T17:07:45.130Z,4.03
2019-02-14T17:10:13.317Z,4.20
2019-02-14T17:12:41.519Z,4.40
2019-02-14T17:15:10.112Z,3.95
2019-02-14T17:17:38.290Z,3.58
2019-02-14T17:20:07.734Z,4.00
2019-02-14T17:22:36.518Z,4.03
2019-02-14T17:25:05.802Z,4.00
2019-02-14T17:27:34.086Z,4.22
2019-02-14T17:30:02.839Z,4.20
2019-02-14T17:32:30.425Z,4.10
2019-02-14T17:34:58.750Z,4.08
2019-02-14T17:37:26.994Z,4.05
2019-02-14T17:39:55.577Z,3.65
2019-02-14T17:42:24.339Z,4.00
2019-02-14T17:44:52.378Z,4.20
2019-02-14T17:47:20.814Z,3.67
2019-02-14T17:49:49.793Z,4.47
2019-02-14T17:52:17.199Z,3.87
2019-02-14T17:54:46.460Z,4.45
2019-02-14T17:57:14.089Z,3.85
2019-02-14T17:59:42.962Z,4.20
2019-02-14T18:02:12.732Z,3.75
2019-02-14T18:04:40.053Z,4.65
2019-02-14T18:07:07.111Z,4.45
2019-02-14T18:09:35.321Z,4.83
2019-02-14T18:12:05.855Z,3.65
2019-02-14T18:14:32.984Z,4.10
2019-02-14T18:17:00.382Z,4.05
2019-02-14T18:19:27.459Z,4.40
2019-02-14T18:21:56.158Z,4.53
2019-02-14T18:24:24.910Z,4.75
2019-02-14T18:26:52.147Z,4.65
2019-02-14T18:29:20.201Z,4.35
2019-02-14T18:31:48.347Z,5.15
2019-02-14T18:34:16.564Z,4.90
2019-02-14T18:36:44.979Z,4.87
2019-02-14T18:39:13.256Z,4.83
2019-02-14T18:41:41.807Z,5.47
2019-02-14T18:44:10.433Z,5.40
2019-02-14T18:46:37.683Z,5.08
2019-02-14T18:49:05.910Z,4.65
2019-02-14T18:51:34.604Z,5.00
2019-02-14T18:54:01.681Z,6.70
2019-02-14T18:56:30.448Z,7.37
2019-02-14T18:58:58.808Z,7.78
2019-02-14T19:01:25.893Z,7.35
2019-02-14T19:03:54.504Z,8.60
2019-02-14T19:06:22.776Z,6.50
2019-02-14T19:08:51.234Z,6.15
2019-02-14T19:11:18.454Z,5.60
2019-02-14T19:13:46.991Z,5.97
2019-02-14T19:16:15.286Z,4.90
2019-02-14T19:18:43.698Z,4.87
2019-02-14T19:21:10.883Z,5.20
2019-02-14T19:23:38.958Z,5.37
2019-02-14T19:26:07.239Z,5.10
2019-02-14T19:28:35.498Z,5.20
2019-02-14T19:31:02.770Z,4.72
2019-02-14T19:33:30.967Z,4.58
2019-02-14T19:35:59.261Z,4.90
2019-02-14T19:38:28.530Z,5.17
2019-02-14T19:40:56.431Z,4.58
2019-02-14T19:43:28.625Z,4.87
2019-02-14T19:45:56.107Z,4.80
2019-02-14T19:48:23.190Z,4.90
2019-02-14T19:50:50.433Z,4.05
2019-02-14T19:53:17.729Z,5.00
2019-02-14T19:55:45.175Z,6.58
2019-02-14T19:58:12.429Z,4.72
2019-02-14T20:00:40.617Z,5.85
2019-02-14T20:03:08.911Z,6.40
2019-02-14T20:05:37.414Z,6.20
2019-02-14T20:08:06.079Z,6.08
2019-02-14T20:10:33.546Z,5.08
2019-02-14T20:13:02.271Z,6.25
2019-02-14T20:15:37.168Z,6.65
2019-02-14T20:18:01.790Z,6.05
2019-02-14T20:20:28.864Z,6.00
2019-02-14T20:22:57.030Z,6.03
2019-02-14T20:25:25.735Z,5.65
2019-02-14T20:27:54.080Z,4.97
2019-02-14T20:30:22.284Z,6.10
2019-02-14T20:32:49.594Z,5.90
2019-02-14T20:35:18.018Z,5.85
2019-02-14T20:37:46.649Z,5.83
2019-02-14T20:40:14.892Z,5.65
2019-02-14T20:42:43.815Z,6.17
2019-02-14T20:45:11.321Z,6.70
2019-02-14T20:47:39.732Z,5.95
2019-02-14T20:50:09.751Z,5.85
2019-02-14T20:52:38.350Z,5.50
2019-02-14T20:55:08.434Z,6.67
2019-02-14T20:57:36.973Z,7.55
2019-02-14T21:00:08.459Z,6.87
2019-02-14T21:02:35.874Z,7.83
2019-02-14T21:05:04.314Z,7.90
2019-02-14T21:07:32.450Z,7.00
2019-02-14T21:10:00.651Z,7.10
2019-02-14T21:12:28.852Z,8.43
2019-02-14T21:14:57.151Z,8.38
2019-02-14T21:17:25.421Z,7.28
2019-02-14T21:19:53.683Z,8.05
2019-02-14T21:22:23.646Z,7.95
2019-02-14T21:24:52.056Z,8.85
2019-02-14T21:27:22.896Z,7.85
2019-02-14T21:29:50.261Z,8.40
2019-02-14T21:32:21.668Z,7.75
2019-02-14T21:34:48.857Z,7.30
2019-02-14T21:37:16.185Z,8.35
2019-02-14T21:39:43.758Z,7.05
2019-02-14T21:42:20.442Z,7.90
2019-02-14T21:44:40.110Z,7.75
2019-02-14T21:47:07.715Z,7.35
2019-02-14T21:49:34.999Z,7.15
2019-02-14T21:52:02.069Z,7.72
2019-02-14T21:54:29.258Z,6.95
2019-02-14T21:56:57.621Z,7.08
2019-02-14T21:59:24.931Z,7.17
2019-02-14T22:01:53.114Z,7.40
2019-02-14T22:04:21.355Z,6.37
2019-02-14T22:06:49.934Z,6.40
2019-02-14T22:09:18.298Z,6.87
2019-02-14T22:11:46.656Z,7.60
2019-02-14T22:14:14.972Z,7.12
2019-02-14T22:16:42.035Z,7.47
2019-02-14T22:19:10.251Z,8.38
2019-02-14T22:21:38.516Z,7.70
2019-02-14T22:24:06.989Z,8.53
2019-02-14T22:26:34.178Z,7.78
2019-02-14T22:29:02.287Z,7.40
2019-02-14T22:31:30.459Z,8.10
2019-02-14T22:33:58.548Z,7.97
2019-02-14T22:36:26.818Z,7.83
2019-02-14T22:38:54.863Z,8.45
2019-02-14T22:41:23.067Z,8.00
2019-02-14T22:43:51.266Z,8.50
2019-02-14T22:46:19.444Z,8.23
2019-02-14T22:48:48.418Z,7.90
2019-02-14T22:51:17.088Z,8.45
2019-02-14T22:53:45.147Z,7.92
2019-02-14T22:56:14.076Z,7.10
2019-02-14T22:58:42.623Z,7.92
2019-02-14T23:01:11.250Z,8.08
2019-02-14T23:03:39.695Z,7.08
2019-02-14T23:06:07.950Z,7.67
2019-02-14T23:08:36.641Z,7.80
2019-02-14T23:11:05.779Z,6.87
2019-02-14T23:13:34.743Z,8.30
2019-02-14T23:16:02.612Z,8.10
2019-02-14T23:18:31.605Z,9.33
2019-02-14T23:20:59.776Z,8.05
2019-02-14T23:23:28.667Z,8.60
2019-02-14T23:25:57.458Z,8.65
2019-02-14T23:28:26.243Z,9.15
2019-02-14T23:30:53.410Z,8.50
2019-02-14T23:33:21.749Z,8.70
2019-02-14T23:35:49.841Z,8.68
2019-02-14T23:38:18.006Z,9.63
2019-02-14T23:40:46.326Z,9.25
2019-02-14T23:43:14.503Z,9.18
2019-02-14T23:45:42.693Z,9.23
2019-02-14T23:48:10.674Z,8.65
2019-02-14T23:50:39.074Z,9.30
2019-02-14T23:53:06.250Z,8.58
2019-02-14T23:55:34.450Z,10.00
2019-02-14T23:58:02.999Z,9.60
